Barbarossa — ZDFA4 — position and weather

sailwx.info

Track history (hours):
 
Tides and Currents Weather Stations Pressure Air Temp Water Temp Dewpoint Dewpoint Depression Visibility Wind Speed Wind Dir Waves Ship Positions

Barbarossa

Last reported at 2015-May-27 10:17 UTC. Time now 2015-May-29 04:15 UTC.
Position N 54°37' E 010°24'.

Length 83 m; draft 4.1 m.

Type: Cargo ship. MMSI: 236029000.

Date/timePositionNaut miles runAvg speedWind from/ knotsBaromVisibWave heightAir tempDewpointWater temp
2015-May-27 10:17N 54°37' E 010°24'810.9
2015-May-27 09:33N 54°30' E 010°19'1010.1
2015-May-27 08:33N 54°22' E 010°09'3 3.5
2015-May-27 07:33N 54°22' E 010°03'8 7.9
2015-May-27 06:33N 54°22' E 009°49'8 8.0
2015-May-27 05:33N 54°17' E 009°38'25 7.2
2015-May-27 02:05N 53°56' E 009°13'0 0.1
2015-May-27 01:21N 53°56' E 009°13'10 5.7
2015-May-26 23:33N 53°51' E 008°58'7 7.3
2015-May-26 22:33N 53°51' E 008°46'8 7.6
2015-May-26 21:33N 53°57' E 008°38'9 8.7
2015-May-26 20:33N 53°59' E 008°24'9 9.3
2015-May-26 19:33N 53°59' E 008°08'6 5.9
2015-May-26 18:33N 53°53' E 008°04'1010.4
2015-May-26 17:33N 53°45' E 008°13'10 9.6
2015-May-26 16:33N 53°38' E 008°26'8 8.3
2015-May-26 15:33N 53°31' E 008°34'8 8.1
2015-May-26 14:33N 53°24' E 008°30'3 2.8
2015-May-26 13:22N 53°20' E 008°30'0 0.0
2015-May-26 12:30N 53°20' E 008°30'0 0.0
2015-May-26 11:33N 53°20' E 008°30'0 0.0
2015-May-26 10:32N 53°20' E 008°30'0 0.0
2015-May-26 09:29N 53°20' E 008°30'0 0.0
2015-May-26 08:29N 53°20' E 008°30'0 0.0
2015-May-26 07:31N 53°20' E 008°30'0 0.0
2015-May-26 06:06N 53°20' E 008°30'0 0.0
2015-May-26 04:21N 53°20' E 008°30'0 0.0
2015-May-26 03:32N 53°20' E 008°30'0 0.0
2015-May-26 02:11N 53°20' E 008°30'0 0.0
2015-May-26 01:32N 53°20' E 008°30'0 0.0
2015-May-26 00:31N 53°20' E 008°30'0 0.0
2015-May-25 23:31N 53°20' E 008°30'0 0.0
2015-May-25 22:33N 53°20' E 008°30'0 0.0
2015-May-25 21:30N 53°20' E 008°30'0 0.0
2015-May-25 20:32N 53°20' E 008°30'0 0.0
2015-May-25 19:23N 53°20' E 008°30'0 0.0
2015-May-25 18:22N 53°20' E 008°30'0 0.0
2015-May-25 17:31N 53°20' E 008°30'0 0.0
2015-May-25 16:10N 53°20' E 008°30'0 0.0
2015-May-25 15:21N 53°20' E 008°30'0 0.0
2015-May-25 14:27N 53°20' E 008°30'0 0.0
2015-May-25 13:26N 53°20' E 008°30'0 0.0
2015-May-25 12:29N 53°20' E 008°30'0 0.0
2015-May-25 11:28N 53°20' E 008°30'0 0.0
2015-May-25 10:31N 53°20' E 008°30'0 0.0
2015-May-25 09:31N 53°20' E 008°30'0 0.0
2015-May-25 08:33N 53°20' E 008°30'0 0.0
2015-May-25 07:33N 53°20' E 008°30'0 0.0
2015-May-25 06:32N 53°20' E 008°30'0 0.0
2015-May-25 05:32N 53°20' E 008°30'0 0.0
2015-May-25 04:10N 53°20' E 008°30'0 0.0
2015-May-25 03:28N 53°20' E 008°30'0 0.0
2015-May-25 02:31N 53°20' E 008°30'0 0.0
2015-May-25 01:33N 53°20' E 008°30'0 0.0
2015-May-25 00:30N 53°20' E 008°30'0 0.0
2015-May-24 23:29N 53°20' E 008°30'0 0.0
2015-May-24 22:32N 53°20' E 008°30'0 0.0
2015-May-24 21:32N 53°20' E 008°30'0 0.0
2015-May-24 20:31N 53°20' E 008°30'0 0.0
2015-May-24 19:31N 53°20' E 008°30'0 0.0
2015-May-24 15:10N 53°20' E 008°30'0 0.0
2015-May-24 12:28N 53°20' E 008°30'0 0.0
2015-May-24 11:11N 53°20' E 008°30'2 2.8
2015-May-24 10:33N 53°22' E 008°30'8 7.5
2015-May-24 09:33N 53°30' E 008°30'6 5.8
2015-May-24 08:33N 53°35' E 008°31'7 7.4
2015-May-24 07:33N 53°41' E 008°22'7 7.2
2015-May-24 06:33N 53°45' E 008°12'7 6.9
2015-May-24 05:33N 53°50' E 008°04'8 7.6
2015-May-24 04:33N 53°52' E 007°52'9 8.9
2015-May-24 03:33N 53°54' E 007°37'9 9.5
2015-May-24 02:33N 53°52' E 007°21'12 9.9
2015-May-24 01:22N 53°50' E 007°02'1910.2
2015-May-23 23:29N 53°46' E 006°30'28 9.7
2015-May-23 20:33N 53°37' E 005°45'9 9.1
2015-May-23 19:33N 53°34' E 005°30'9 8.5
2015-May-23 18:33N 53°31' E 005°16'8 7.8
2015-May-23 17:33N 53°29' E 005°04'8 7.7
2015-May-23 16:33N 53°26' E 004°52'7 7.2
2015-May-23 15:31N 53°22' E 004°41'30 7.6
2015-May-23 11:33N 52°55' E 004°18'8 7.8
2015-May-23 10:33N 52°49' E 004°11'8 8.4
2015-May-23 09:33N 52°42' E 004°04'9 8.9
2015-May-23 08:33N 52°35' E 003°54'59 9.4
2015-May-23 02:17N 51°41' E 003°19'6 8.8
2015-May-23 01:33N 51°35' E 003°24'8 7.9
2015-May-23 00:34N 51°28' E 003°31'8 7.8
2015-May-22 23:33N 51°25' E 003°42'4 3.7
2015-May-22 22:32N 51°23' E 003°47'0 0.0
2015-May-22 21:32N 51°23' E 003°47'0 0.0
2015-May-22 20:31N 51°23' E 003°47'0 0.2
2015-May-22 19:31N 51°23' E 003°47'0 0.1
2015-May-22 18:33N 51°23' E 003°47'0 0.2
2015-May-22 17:33N 51°23' E 003°47'0 0.1
2015-May-22 16:34N 51°23' E 003°47'8 8.3
2015-May-22 15:34N 51°25' E 003°34'1912.6
2015-May-22 14:05N 51°24' E 003°05'610.6
2015-May-22 13:34N 51°22' E 002°56'10 9.6
2015-May-22 12:34N 51°22' E 002°41'9 8.7
2015-May-22 11:33N 51°21' E 002°27'8 8.0
2015-May-22 10:34N 51°17' E 002°16'8 7.9
2015-May-22 09:33N 51°13' E 002°05'8 8.0
2015-May-22 08:33N 51°09' E 001°54'8 7.7
2015-May-22 07:34N 51°04' E 001°44'8 7.7
2015-May-22 06:32N 50°58' E 001°36'20 9.6
2015-May-22 04:26N 50°41' E 001°18'19 9.7
2015-May-22 02:27N 50°31' E 000°53'  
Track history (hours):
 
Tides and Currents Weather Stations Pressure Air Temp Water Temp Dewpoint Dewpoint Depression Visibility Wind Speed Wind Dir Waves Ship Positions

Barbarossa

Last reported at 2015-May-27 10:17 UTC. Time now 2015-May-29 04:15 UTC.
Position N 54°37' E 010°24'.

Length 83 m; draft 4.1 m.

Type: Cargo ship. MMSI: 236029000.

Date/timePositionNaut miles runAvg speedWind from/ knotsBaromVisibWave heightAir tempDewpointWater temp
2015-May-27 10:17N 54°37' E 010°24'810.9
2015-May-27 09:33N 54°30' E 010°19'1010.1
2015-May-27 08:33N 54°22' E 010°09'3 3.5
2015-May-27 07:33N 54°22' E 010°03'8 7.9
2015-May-27 06:33N 54°22' E 009°49'8 8.0
2015-May-27 05:33N 54°17' E 009°38'25 7.2
2015-May-27 02:05N 53°56' E 009°13'0 0.1
2015-May-27 01:21N 53°56' E 009°13'10 5.7
2015-May-26 23:33N 53°51' E 008°58'7 7.3
2015-May-26 22:33N 53°51' E 008°46'8 7.6
2015-May-26 21:33N 53°57' E 008°38'9 8.7
2015-May-26 20:33N 53°59' E 008°24'9 9.3
2015-May-26 19:33N 53°59' E 008°08'6 5.9
2015-May-26 18:33N 53°53' E 008°04'1010.4
2015-May-26 17:33N 53°45' E 008°13'10 9.6
2015-May-26 16:33N 53°38' E 008°26'8 8.3
2015-May-26 15:33N 53°31' E 008°34'8 8.1
2015-May-26 14:33N 53°24' E 008°30'3 2.8
2015-May-26 13:22N 53°20' E 008°30'0 0.0
2015-May-26 12:30N 53°20' E 008°30'0 0.0
2015-May-26 11:33N 53°20' E 008°30'0 0.0
2015-May-26 10:32N 53°20' E 008°30'0 0.0
2015-May-26 09:29N 53°20' E 008°30'0 0.0
2015-May-26 08:29N 53°20' E 008°30'0 0.0
2015-May-26 07:31N 53°20' E 008°30'0 0.0
2015-May-26 06:06N 53°20' E 008°30'0 0.0
2015-May-26 04:21N 53°20' E 008°30'0 0.0
2015-May-26 03:32N 53°20' E 008°30'0 0.0
2015-May-26 02:11N 53°20' E 008°30'0 0.0
2015-May-26 01:32N 53°20' E 008°30'0 0.0
2015-May-26 00:31N 53°20' E 008°30'0 0.0
2015-May-25 23:31N 53°20' E 008°30'0 0.0
2015-May-25 22:33N 53°20' E 008°30'0 0.0
2015-May-25 21:30N 53°20' E 008°30'0 0.0
2015-May-25 20:32N 53°20' E 008°30'0 0.0
2015-May-25 19:23N 53°20' E 008°30'0 0.0
2015-May-25 18:22N 53°20' E 008°30'0 0.0
2015-May-25 17:31N 53°20' E 008°30'0 0.0
2015-May-25 16:10N 53°20' E 008°30'0 0.0
2015-May-25 15:21N 53°20' E 008°30'0 0.0
2015-May-25 14:27N 53°20' E 008°30'0 0.0
2015-May-25 13:26N 53°20' E 008°30'0 0.0
2015-May-25 12:29N 53°20' E 008°30'0 0.0
2015-May-25 11:28N 53°20' E 008°30'0 0.0
2015-May-25 10:31N 53°20' E 008°30'0 0.0
2015-May-25 09:31N 53°20' E 008°30'0 0.0
2015-May-25 08:33N 53°20' E 008°30'0 0.0
2015-May-25 07:33N 53°20' E 008°30'0 0.0
2015-May-25 06:32N 53°20' E 008°30'0 0.0
2015-May-25 05:32N 53°20' E 008°30'0 0.0
2015-May-25 04:10N 53°20' E 008°30'0 0.0
2015-May-25 03:28N 53°20' E 008°30'0 0.0
2015-May-25 02:31N 53°20' E 008°30'0 0.0
2015-May-25 01:33N 53°20' E 008°30'0 0.0
2015-May-25 00:30N 53°20' E 008°30'0 0.0
2015-May-24 23:29N 53°20' E 008°30'0 0.0
2015-May-24 22:32N 53°20' E 008°30'0 0.0
2015-May-24 21:32N 53°20' E 008°30'0 0.0
2015-May-24 20:31N 53°20' E 008°30'0 0.0
2015-May-24 19:31N 53°20' E 008°30'0 0.0
2015-May-24 15:10N 53°20' E 008°30'0 0.0
2015-May-24 12:28N 53°20' E 008°30'0 0.0
2015-May-24 11:11N 53°20' E 008°30'2 2.8
2015-May-24 10:33N 53°22' E 008°30'8 7.5
2015-May-24 09:33N 53°30' E 008°30'6 5.8
2015-May-24 08:33N 53°35' E 008°31'7 7.4
2015-May-24 07:33N 53°41' E 008°22'7 7.2
2015-May-24 06:33N 53°45' E 008°12'7 6.9
2015-May-24 05:33N 53°50' E 008°04'8 7.6
2015-May-24 04:33N 53°52' E 007°52'9 8.9
2015-May-24 03:33N 53°54' E 007°37'9 9.5
2015-May-24 02:33N 53°52' E 007°21'12 9.9
2015-May-24 01:22N 53°50' E 007°02'1910.2
2015-May-23 23:29N 53°46' E 006°30'28 9.7
2015-May-23 20:33N 53°37' E 005°45'9 9.1
2015-May-23 19:33N 53°34' E 005°30'9 8.5
2015-May-23 18:33N 53°31' E 005°16'8 7.8
2015-May-23 17:33N 53°29' E 005°04'8 7.7
2015-May-23 16:33N 53°26' E 004°52'7 7.2
2015-May-23 15:31N 53°22' E 004°41'30 7.6
2015-May-23 11:33N 52°55' E 004°18'8 7.8
2015-May-23 10:33N 52°49' E 004°11'8 8.4
2015-May-23 09:33N 52°42' E 004°04'9 8.9
2015-May-23 08:33N 52°35' E 003°54'59 9.4
2015-May-23 02:17N 51°41' E 003°19'6 8.8
2015-May-23 01:33N 51°35' E 003°24'8 7.9
2015-May-23 00:34N 51°28' E 003°31'8 7.8
2015-May-22 23:33N 51°25' E 003°42'4 3.7
2015-May-22 22:32N 51°23' E 003°47'0 0.0
2015-May-22 21:32N 51°23' E 003°47'0 0.0
2015-May-22 20:31N 51°23' E 003°47'0 0.2
2015-May-22 19:31N 51°23' E 003°47'0 0.1
2015-May-22 18:33N 51°23' E 003°47'0 0.2
2015-May-22 17:33N 51°23' E 003°47'0 0.1
2015-May-22 16:34N 51°23' E 003°47'8 8.3
2015-May-22 15:34N 51°25' E 003°34'1912.6
2015-May-22 14:05N 51°24' E 003°05'610.6
2015-May-22 13:34N 51°22' E 002°56'10 9.6
2015-May-22 12:34N 51°22' E 002°41'9 8.7
2015-May-22 11:33N 51°21' E 002°27'8 8.0
2015-May-22 10:34N 51°17' E 002°16'8 7.9
2015-May-22 09:33N 51°13' E 002°05'8 8.0
2015-May-22 08:33N 51°09' E 001°54'8 7.7
2015-May-22 07:34N 51°04' E 001°44'8 7.7
2015-May-22 06:32N 50°58' E 001°36'20 9.6
2015-May-22 04:26N 50°41' E 001°18'19 9.7
2015-May-22 02:27N 50°31' E 000°53'  

Dump ship's entire track history